Time;durP1;ratioP1;P1;durP2;ratioP2;P2;SDS_P1;SDS_P2;PMS_P1;PMS_P2;Temp;Humidity;BMP_temperature;BMP_pressure;BME280_temperature;BME280_humidity;BME280_pressure;Samples;Min_cycle;Max_cycle;Signal;HPM_P1;HPM_P2
2023/05/26 00:00:23;;;;;;;0.50;0.50;;;13.70;99.90;;;;;;4410290;32;20521;-75
2023/05/26 00:02:50;;;;;;;0.52;0.52;;;13.70;99.90;;;;;;4410334;32;20065;-73
2023/05/26 00:05:16;;;;;;;3.20;0.70;;;13.50;99.90;;;;;;4411156;32;20066;-73
2023/05/26 00:07:42;;;;;;;13.90;0.62;;;13.30;99.90;;;;;;4408198;32;20082;-74
2023/05/26 00:10:09;;;;;;;0.80;0.70;;;13.20;99.90;;;;;;4410620;32;20065;-73
2023/05/26 00:12:35;;;;;;;6.03;1.25;;;13.10;99.90;;;;;;4410611;32;20136;-73
2023/05/26 00:15:02;;;;;;;0.40;0.40;;;13.10;99.90;;;;;;4411073;32;20069;-75
2023/05/26 00:17:28;;;;;;;26.62;1.67;;;13.10;99.90;;;;;;4408167;32;21024;-76
2023/05/26 00:19:54;;;;;;;6.55;0.82;;;13.10;99.90;;;;;;4412236;32;20066;-77
2023/05/26 00:22:19;;;;;;;2.62;0.60;;;13.10;99.90;;;;;;4408728;32;20120;-74
2023/05/26 00:24:46;;;;;;;1.98;0.80;;;13.10;99.90;;;;;;4411400;32;20069;-72
2023/05/26 00:27:12;;;;;;;2.08;1.23;;;13.10;99.90;;;;;;4413469;32;20073;-75
2023/05/26 00:29:38;;;;;;;34.88;0.70;;;13.00;99.90;;;;;;4410602;32;20494;-74
2023/05/26 00:32:04;;;;;;;3.25;0.75;;;12.90;99.90;;;;;;4414099;32;20078;-73
2023/05/26 00:34:30;;;;;;;7.68;2.05;;;12.90;99.90;;;;;;4412620;32;21115;-75
2023/05/26 00:36:55;;;;;;;3.12;0.85;;;13.00;99.90;;;;;;4412577;32;20073;-75
2023/05/26 00:39:20;;;;;;;0.40;0.40;;;12.90;99.90;;;;;;4411386;32;20082;-74
2023/05/26 00:41:47;;;;;;;0.40;0.40;;;12.70;99.90;;;;;;4413814;32;20284;-74
2023/05/26 00:44:12;;;;;;;1.80;0.90;;;12.50;99.90;;;;;;4413334;32;20101;-76
2023/05/26 00:46:40;;;;;;;3.15;1.05;;;12.40;99.90;;;;;;4414608;32;20081;-76
2023/05/26 00:49:05;;;;;;;5.43;1.10;;;12.30;99.90;;;;;;4413953;32;20125;-75
2023/05/26 00:51:32;;;;;;;0.40;0.40;;;12.30;99.90;;;;;;4410721;32;20453;-75
2023/05/26 00:53:58;;;;;;;1.27;0.77;;;12.50;99.90;;;;;;4411932;32;20398;-74
2023/05/26 00:56:24;;;;;;;2.83;0.60;;;12.50;99.90;;;;;;4411388;32;20102;-74
2023/05/26 00:58:50;;;;;;;1.75;1.35;;;12.50;99.90;;;;;;4413715;32;20085;-74
2023/05/26 01:01:16;;;;;;;3.30;1.02;;;12.40;99.90;;;;;;4413723;32;20078;-77
2023/05/26 01:03:42;;;;;;;0.75;0.75;;;12.40;99.90;;;;;;4411180;32;20078;-74
2023/05/26 01:06:07;;;;;;;1.33;1.02;;;12.30;99.90;;;;;;4412798;32;20520;-74
2023/05/26 01:08:33;;;;;;;1.27;0.98;;;12.20;99.90;;;;;;4413349;32;20070;-74
2023/05/26 01:11:06;;;;;;;2.10;0.65;;;12.20;99.90;;;;;;4409096;32;20209;-74
2023/05/26 01:13:41;;;;;;;0.40;0.40;;;12.20;99.90;;;;;;4411936;32;20542;-75
2023/05/26 01:16:11;;;;;;;3.15;1.60;;;12.30;99.90;;;;;;4415366;32;20085;-74
2023/05/26 01:18:46;;;;;;;7.87;0.85;;;12.30;99.90;;;;;;4412559;32;20117;-75
2023/05/26 01:21:12;;;;;;;1.85;0.57;;;12.20;99.90;;;;;;4414282;32;20144;-74
2023/05/26 01:24:05;;;;;;;0.50;0.50;;;12.20;99.90;;;;;;4410297;32;20662;-75
2023/05/26 01:26:47;;;;;;;0.25;0.25;;;12.20;99.90;;;;;;4402990;32;20187;-75
2023/05/26 01:29:17;;;;;;;1.00;0.75;;;12.10;99.90;;;;;;4413279;32;20555;-73
2023/05/26 01:31:43;;;;;;;1.70;1.07;;;12.10;99.90;;;;;;4411120;32;20176;-74
2023/05/26 01:34:09;;;;;;;0.90;0.85;;;12.10;99.90;;;;;;4413006;32;20137;-75
2023/05/26 01:36:36;;;;;;;0.37;0.37;;;12.00;99.90;;;;;;4411890;32;20100;-74
2023/05/26 01:39:03;;;;;;;0.30;0.30;;;12.00;99.90;;;;;;4412889;32;20090;-76
2023/05/26 01:41:44;;;;;;;0.62;0.62;;;12.00;99.90;;;;;;4409878;32;20061;-75
2023/05/26 01:44:20;;;;;;;1.37;1.27;;;11.90;99.90;;;;;;4400522;32;20081;-74
2023/05/26 01:46:48;;;;;;;0.80;0.75;;;11.80;99.90;;;;;;4413553;32;21148;-75
2023/05/26 01:49:15;;;;;;;2.37;0.55;;;11.80;99.90;;;;;;4411904;32;20062;-74
2023/05/26 01:51:45;;;;;;;4.12;0.75;;;11.70;99.90;;;;;;4410445;32;20150;-75
2023/05/26 01:54:12;;;;;;;2.10;0.90;;;11.60;99.90;;;;;;4412230;32;20525;-74
2023/05/26 01:56:38;;;;;;;0.57;0.57;;;11.60;99.90;;;;;;4411511;32;20136;-74
2023/05/26 01:59:05;;;;;;;0.52;0.52;;;11.70;99.90;;;;;;4411775;32;20073;-75
2023/05/26 02:01:33;;;;;;;11.68;1.08;;;11.60;99.90;;;;;;4412061;32;20057;-76
2023/05/26 02:03:59;;;;;;;0.50;0.50;;;11.60;99.90;;;;;;4415385;32;20098;-74
2023/05/26 02:06:26;;;;;;;0.30;0.30;;;11.50;99.90;;;;;;4413919;32;20065;-74
2023/05/26 02:08:51;;;;;;;3.00;1.58;;;11.50;99.90;;;;;;4411786;32;20085;-76
2023/05/26 02:11:17;;;;;;;1.17;0.62;;;11.50;99.90;;;;;;4412200;32;20076;-74
2023/05/26 02:13:45;;;;;;;0.20;0.20;;;11.40;99.90;;;;;;4413295;32;20094;-74
2023/05/26 02:16:11;;;;;;;0.50;0.50;;;11.40;99.90;;;;;;4414585;32;20101;-74
2023/05/26 02:18:36;;;;;;;0.93;0.93;;;11.40;99.90;;;;;;4413176;32;20089;-74
2023/05/26 02:21:02;;;;;;;0.70;0.70;;;11.30;99.90;;;;;;4411639;32;20537;-75
2023/05/26 02:23:27;;;;;;;0.82;0.82;;;11.20;99.90;;;;;;4414479;32;20136;-74
2023/05/26 02:25:53;;;;;;;0.50;0.50;;;11.20;99.90;;;;;;4412248;32;20081;-74
2023/05/26 02:28:18;;;;;;;3.05;1.25;;;11.30;99.90;;;;;;4411386;32;20078;-75
2023/05/26 02:30:46;;;;;;;0.85;0.85;;;11.30;99.90;;;;;;4413586;32;20128;-74
2023/05/26 02:33:11;;;;;;;0.65;0.65;;;11.30;99.90;;;;;;4412696;32;20211;-75
2023/05/26 02:35:37;;;;;;;5.40;1.40;;;11.30;99.90;;;;;;4413080;32;20499;-73
2023/05/26 02:38:02;;;;;;;1.10;0.85;;;11.30;99.90;;;;;;4413300;32;20069;-75
2023/05/26 02:40:28;;;;;;;0.40;0.40;;;11.20;99.90;;;;;;4413614;32;20092;-74
2023/05/26 02:42:53;;;;;;;8.32;1.80;;;11.10;99.90;;;;;;4409997;32;20104;-74
2023/05/26 02:45:19;;;;;;;1.40;0.70;;;11.10;99.90;;;;;;4410075;32;20113;-74
2023/05/26 02:47:44;;;;;;;0.82;0.73;;;11.20;99.90;;;;;;4412194;32;20174;-76
2023/05/26 02:50:10;;;;;;;3.00;1.85;;;11.20;99.90;;;;;;4412614;32;20126;-75
2023/05/26 02:52:35;;;;;;;0.65;0.62;;;11.20;99.90;;;;;;4411629;32;20106;-75
2023/05/26 02:55:01;;;;;;;1.45;0.85;;;11.10;99.90;;;;;;4417524;32;20085;-80
2023/05/26 02:57:26;;;;;;;2.08;1.37;;;11.00;99.90;;;;;;4419625;32;20888;-81
2023/05/26 02:59:52;;;;;;;0.70;0.70;;;10.90;99.90;;;;;;4419921;32;20073;-77
2023/05/26 03:02:18;;;;;;;0.70;0.70;;;10.90;99.90;;;;;;4417704;32;20093;-79
2023/05/26 03:04:43;;;;;;;0.35;0.35;;;11.00;99.90;;;;;;4417123;32;20084;-77
2023/05/26 03:07:09;;;;;;;2.20;1.15;;;11.00;99.90;;;;;;4419273;32;20102;-77
2023/05/26 03:09:35;;;;;;;0.73;0.70;;;11.00;99.90;;;;;;4418109;32;20082;-78
2023/05/26 03:12:00;;;;;;;0.47;0.47;;;11.00;99.90;;;;;;4420079;32;20379;-80
2023/05/26 03:14:27;;;;;;;8.43;0.88;;;10.90;99.90;;;;;;4418271;32;20988;-81
2023/05/26 03:16:52;;;;;;;1.67;0.88;;;10.90;99.90;;;;;;4420241;32;20054;-76
2023/05/26 03:19:18;;;;;;;1.17;0.62;;;10.90;99.90;;;;;;4419781;32;20485;-75
2023/05/26 03:21:45;;;;;;;0.45;0.45;;;10.90;99.90;;;;;;4407014;32;20109;-81
2023/05/26 03:24:10;;;;;;;1.95;0.62;;;10.80;99.90;;;;;;4418307;32;20068;-82
2023/05/26 03:26:36;;;;;;;5.65;0.60;;;10.90;99.90;;;;;;4419510;32;20435;-79
2023/05/26 03:29:01;;;;;;;2.37;1.00;;;10.80;99.90;;;;;;4417881;32;20077;-80
2023/05/26 03:31:27;;;;;;;9.63;1.12;;;10.70;99.90;;;;;;4415194;32;21159;-79
2023/05/26 03:33:52;;;;;;;0.30;0.30;;;10.60;99.90;;;;;;4418670;32;20597;-80
2023/05/26 03:36:18;;;;;;;0.55;0.55;;;10.50;99.90;;;;;;4417118;32;20448;-77
2023/05/26 03:38:43;;;;;;;0.70;0.70;;;10.40;99.90;;;;;;4417706;32;20122;-81
2023/05/26 03:41:09;;;;;;;0.62;0.60;;;10.40;99.90;;;;;;4419732;32;20085;-81
2023/05/26 03:43:34;;;;;;;10.30;0.47;;;10.40;99.90;;;;;;4418117;32;20081;-81
2023/05/26 03:46:00;;;;;;;1.95;1.25;;;10.40;99.90;;;;;;4417676;32;20061;-78
2023/05/26 03:48:28;;;;;;;23.77;0.93;;;10.40;99.90;;;;;;4417402;32;20066;-81
2023/05/26 03:50:54;;;;;;;0.20;0.20;;;10.40;99.90;;;;;;4418486;32;20116;-77
2023/05/26 03:53:19;;;;;;;0.30;0.30;;;10.40;99.90;;;;;;4417731;32;20462;-80
2023/05/26 03:55:45;;;;;;;0.43;0.43;;;10.60;99.90;;;;;;4418555;32;20088;-83
2023/05/26 03:58:11;;;;;;;0.62;0.62;;;10.50;99.90;;;;;;4417689;32;20773;-82
2023/05/26 04:00:36;;;;;;;1.33;0.93;;;10.60;99.90;;;;;;4418832;32;20066;-79
2023/05/26 04:03:02;;;;;;;3.78;0.68;;;10.60;99.90;;;;;;4417458;32;20061;-82
2023/05/26 04:05:27;;;;;;;0.30;0.30;;;10.50;99.90;;;;;;4419775;32;20081;-77
2023/05/26 04:07:53;;;;;;;0.52;0.52;;;10.40;99.90;;;;;;4421382;32;20122;-81
2023/05/26 04:10:18;;;;;;;1.95;1.27;;;10.50;99.90;;;;;;4421585;32;20139;-75
2023/05/26 04:12:44;;;;;;;5.37;1.20;;;10.60;99.90;;;;;;4417608;32;20128;-83
2023/05/26 04:15:10;;;;;;;10.15;1.25;;;10.60;99.90;;;;;;4418899;32;20097;-81
2023/05/26 04:17:36;;;;;;;1.23;0.57;;;10.50;99.90;;;;;;4421823;32;20078;-80
2023/05/26 04:20:07;;;;;;;10.95;1.42;;;10.60;99.90;;;;;;4415530;32;20085;-83
2023/05/26 04:22:33;;;;;;;6.15;1.77;;;10.60;99.90;;;;;;4412441;32;20101;-76
2023/05/26 04:24:58;;;;;;;0.77;0.77;;;10.60;99.90;;;;;;4417297;32;20105;-82
2023/05/26 04:27:25;;;;;;;0.50;0.50;;;10.50;99.90;;;;;;4417170;32;20105;-78
2023/05/26 04:29:52;;;;;;;0.50;0.50;;;10.60;99.90;;;;;;4416578;32;20077;-76
2023/05/26 04:32:20;;;;;;;0.62;0.62;;;10.50;99.90;;;;;;4420179;32;20104;-80
2023/05/26 04:34:45;;;;;;;26.58;1.65;;;10.60;99.90;;;;;;4415341;32;20094;-77
2023/05/26 04:37:12;;;;;;;1.10;1.00;;;10.50;99.90;;;;;;4420690;32;20127;-77
2023/05/26 04:39:37;;;;;;;0.62;0.52;;;10.60;99.90;;;;;;4420562;32;20215;-77
2023/05/26 04:42:03;;;;;;;4.22;2.25;;;10.60;99.90;;;;;;4420515;32;20070;-79
2023/05/26 04:44:31;;;;;;;1.00;0.73;;;10.80;99.90;;;;;;4417469;32;20053;-80
2023/05/26 04:46:56;;;;;;;0.40;0.40;;;10.80;99.90;;;;;;4418665;32;20154;-81
2023/05/26 04:49:23;;;;;;;0.88;0.77;;;10.80;99.90;;;;;;4423589;32;20552;-75
2023/05/26 04:51:56;;;;;;;1.12;0.65;;;10.80;99.90;;;;;;4426625;32;21142;-79
2023/05/26 04:54:22;;;;;;;0.50;0.50;;;10.90;99.90;;;;;;4418556;32;20136;-81
2023/05/26 04:56:47;;;;;;;0.43;0.43;;;10.90;99.90;;;;;;4421833;32;20069;-78
2023/05/26 04:59:13;;;;;;;0.60;0.60;;;11.00;99.90;;;;;;4421750;32;20508;-80
2023/05/26 05:01:38;;;;;;;0.68;0.68;;;11.00;99.90;;;;;;4419465;32;20125;-76
2023/05/26 05:04:05;;;;;;;3.03;1.08;;;11.20;99.90;;;;;;4424152;32;20086;-76
2023/05/26 05:06:30;;;;;;;0.98;0.55;;;11.30;99.90;;;;;;4430707;32;20101;-75
2023/05/26 05:08:55;;;;;;;0.90;0.68;;;11.40;99.90;;;;;;4432566;32;20106;-75
2023/05/26 05:11:21;;;;;;;1.23;0.95;;;11.40;99.90;;;;;;4422349;32;20140;-74
2023/05/26 05:13:46;;;;;;;0.47;0.47;;;11.50;99.90;;;;;;4432828;26;20491;-72
2023/05/26 05:16:12;;;;;;;3.30;0.70;;;11.60;99.90;;;;;;4414882;32;20106;-73
2023/05/26 05:18:37;;;;;;;2.37;0.82;;;11.60;99.90;;;;;;4404354;32;20544;-73
2023/05/26 05:21:04;;;;;;;2.70;1.60;;;11.70;99.90;;;;;;4413139;32;20124;-72
2023/05/26 05:23:34;;;;;;;0.40;0.40;;;11.80;99.90;;;;;;4410585;32;20800;-73
2023/05/26 05:26:00;;;;;;;0.32;0.32;;;12.00;99.90;;;;;;4404399;32;20136;-76
2023/05/26 05:28:26;;;;;;;0.82;0.70;;;12.10;99.90;;;;;;4401555;32;20169;-75
2023/05/26 05:30:51;;;;;;;2.83;1.50;;;12.20;99.90;;;;;;4394217;32;20089;-75
2023/05/26 05:33:17;;;;;;;23.92;1.37;;;12.20;99.90;;;;;;4398436;32;20504;-74
2023/05/26 05:35:45;;;;;;;4.95;1.37;;;12.30;99.90;;;;;;4407061;32;20066;-74
2023/05/26 05:38:12;;;;;;;0.30;0.30;;;12.30;99.90;;;;;;4401912;32;21168;-73
2023/05/26 05:40:39;;;;;;;0.40;0.40;;;12.40;99.90;;;;;;4404900;32;20153;-72
2023/05/26 05:43:05;;;;;;;0.68;0.50;;;12.50;99.90;;;;;;4403230;32;20110;-71
2023/05/26 05:45:32;;;;;;;6.93;1.12;;;12.60;99.90;;;;;;4397454;32;20084;-74
2023/05/26 05:47:58;;;;;;;7.50;0.70;;;12.70;99.90;;;;;;4398424;32;20105;-75
2023/05/26 05:50:24;;;;;;;5.18;0.95;;;12.70;99.90;;;;;;4393709;32;21726;-75
2023/05/26 05:52:50;;;;;;;0.60;0.60;;;12.80;99.90;;;;;;4387337;32;20405;-76
2023/05/26 05:55:16;;;;;;;0.77;0.77;;;12.90;99.90;;;;;;4390663;32;20570;-76
2023/05/26 05:57:42;;;;;;;0.60;0.60;;;12.90;99.90;;;;;;4372518;32;20097;-74
2023/05/26 06:00:09;;;;;;;0.45;0.45;;;12.90;99.90;;;;;;4378367;32;20118;-77
2023/05/26 06:02:36;;;;;;;0.80;0.50;;;13.00;99.90;;;;;;4381042;32;20841;-77
2023/05/26 06:05:07;;;;;;;4.85;0.70;;;13.10;99.90;;;;;;4379284;32;20090;-76
2023/05/26 06:07:33;;;;;;;1.55;1.25;;;13.20;99.90;;;;;;4383446;32;20718;-77
2023/05/26 06:09:58;;;;;;;0.45;0.45;;;13.20;99.90;;;;;;4388363;32;20082;-76
2023/05/26 06:12:24;;;;;;;0.50;0.50;;;13.20;99.90;;;;;;4392040;32;20334;-78
2023/05/26 06:14:50;;;;;;;5.82;1.50;;;13.30;99.90;;;;;;4390683;32;20611;-75
2023/05/26 06:17:15;;;;;;;2.42;0.85;;;13.40;99.90;;;;;;4383655;32;20094;-79
2023/05/26 06:19:43;;;;;;;7.12;1.20;;;13.40;99.90;;;;;;4382017;32;20572;-78
2023/05/26 06:22:08;;;;;;;0.37;0.37;;;13.50;99.90;;;;;;4387358;32;20584;-75
2023/05/26 06:24:34;;;;;;;0.62;0.60;;;13.60;99.90;;;;;;4379546;32;20472;-76
2023/05/26 06:26:59;;;;;;;0.50;0.50;;;13.70;99.90;;;;;;4384050;32;20700;-75
2023/05/26 06:29:26;;;;;;;0.52;0.52;;;13.80;99.90;;;;;;4381846;32;20192;-79
2023/05/26 06:31:51;;;;;;;1.75;1.35;;;13.70;99.90;;;;;;4385965;32;20676;-76
2023/05/26 06:34:17;;;;;;;4.30;1.02;;;13.80;99.90;;;;;;4370199;32;20094;-77
2023/05/26 06:36:42;;;;;;;0.30;0.30;;;13.90;99.90;;;;;;4374044;32;20129;-78
2023/05/26 06:39:09;;;;;;;3.05;0.80;;;14.00;99.90;;;;;;4378684;32;20101;-75
2023/05/26 06:41:34;;;;;;;1.27;1.17;;;14.00;99.90;;;;;;4385508;32;20139;-78
2023/05/26 06:44:00;;;;;;;4.65;0.75;;;14.00;99.90;;;;;;4387872;32;20586;-77
2023/05/26 06:46:27;;;;;;;2.92;1.05;;;14.00;99.90;;;;;;4378228;32;20106;-77
2023/05/26 06:48:54;;;;;;;0.80;0.62;;;14.20;99.90;;;;;;4377773;32;21599;-76
2023/05/26 06:51:19;;;;;;;2.12;1.77;;;14.30;99.90;;;;;;4378836;32;20250;-78
2023/05/26 06:53:45;;;;;;;7.37;1.35;;;14.30;99.90;;;;;;4381326;32;20065;-75
2023/05/26 06:56:10;;;;;;;0.45;0.45;;;14.30;99.90;;;;;;4375083;32;20778;-76
2023/05/26 06:58:36;;;;;;;24.65;4.22;;;14.40;99.90;;;;;;4380517;32;20102;-76
2023/05/26 07:01:03;;;;;;;0.75;0.75;;;14.30;99.90;;;;;;4380407;32;20265;-74
2023/05/26 07:03:30;;;;;;;2.03;0.88;;;14.40;99.90;;;;;;4383524;32;20093;-76
2023/05/26 07:05:57;;;;;;;10.32;0.77;;;14.50;99.90;;;;;;4379496;32;20676;-74
2023/05/26 07:08:23;;;;;;;0.70;0.70;;;14.70;99.90;;;;;;4380172;32;20268;-76
2023/05/26 07:10:49;;;;;;;0.70;0.70;;;14.70;99.90;;;;;;4382746;32;20228;-77
2023/05/26 07:13:15;;;;;;;1.30;0.80;;;14.80;99.90;;;;;;4383320;32;20626;-75
2023/05/26 07:15:42;;;;;;;7.03;2.83;;;14.90;99.90;;;;;;4383848;32;20105;-75
2023/05/26 07:18:08;;;;;;;5.93;1.60;;;14.80;99.90;;;;;;4385799;32;20524;-76
2023/05/26 07:20:33;;;;;;;11.30;1.00;;;14.90;99.90;;;;;;4380339;32;20600;-75
2023/05/26 07:22:59;;;;;;;1.40;1.30;;;15.00;99.90;;;;;;4380153;32;20480;-76
2023/05/26 07:25:25;;;;;;;1.10;0.93;;;15.10;99.90;;;;;;4373786;32;20119;-77
2023/05/26 07:27:50;;;;;;;19.42;0.90;;;15.20;99.90;;;;;;4368419;32;20113;-74
2023/05/26 07:30:16;;;;;;;0.50;0.50;;;15.40;99.90;;;;;;4370338;32;20165;-73
2023/05/26 07:32:42;;;;;;;0.98;0.77;;;15.50;99.90;;;;;;4362205;32;20853;-76
2023/05/26 07:35:08;;;;;;;4.75;0.95;;;15.60;99.90;;;;;;4371401;32;20445;-77
2023/05/26 07:37:33;;;;;;;0.70;0.70;;;15.60;99.90;;;;;;4383206;32;20449;-75
2023/05/26 07:39:59;;;;;;;0.47;0.47;;;15.60;99.90;;;;;;4382150;32;20105;-74
2023/05/26 07:42:24;;;;;;;6.47;0.70;;;15.80;99.90;;;;;;4389271;32;20144;-75
2023/05/26 07:44:50;;;;;;;0.50;0.50;;;16.00;99.90;;;;;;4381820;32;20152;-76
2023/05/26 07:47:15;;;;;;;0.52;0.52;;;16.20;99.90;;;;;;4380244;32;20900;-74
2023/05/26 07:49:41;;;;;;;3.30;1.50;;;16.30;99.90;;;;;;4369016;32;20604;-74
2023/05/26 07:52:06;;;;;;;2.87;1.77;;;16.40;99.90;;;;;;4351389;32;20545;-75
2023/05/26 07:54:32;;;;;;;0.50;0.50;;;16.40;99.90;;;;;;4341948;32;20094;-73
2023/05/26 07:56:57;;;;;;;0.60;0.60;;;16.30;99.90;;;;;;4365464;32;20278;-75
2023/05/26 07:59:23;;;;;;;9.82;0.88;;;16.40;99.90;;;;;;4380666;32;20943;-76
2023/05/26 08:01:49;;;;;;;0.40;0.40;;;16.50;99.90;;;;;;4366872;32;20915;-76
2023/05/26 08:04:14;;;;;;;1.95;0.98;;;16.70;99.90;;;;;;4371550;32;20490;-72
2023/05/26 08:06:40;;;;;;;5.18;1.52;;;16.80;99.90;;;;;;4383237;32;20462;-75
2023/05/26 08:09:06;;;;;;;2.37;0.80;;;16.90;99.90;;;;;;4384475;32;20325;-75
2023/05/26 08:11:31;;;;;;;1.00;1.00;;;17.00;99.90;;;;;;4380782;32;20505;-76
2023/05/26 08:13:58;;;;;;;0.70;0.55;;;17.20;99.90;;;;;;4370016;32;20093;-77
2023/05/26 08:16:24;;;;;;;2.72;0.77;;;17.40;99.90;;;;;;4386503;32;20129;-75
2023/05/26 08:18:50;;;;;;;3.72;0.82;;;17.30;99.90;;;;;;4383657;32;20421;-75
2023/05/26 08:21:16;;;;;;;0.73;0.73;;;17.20;99.90;;;;;;4382080;32;22940;-76
2023/05/26 08:23:41;;;;;;;0.73;0.73;;;17.30;99.90;;;;;;4386312;32;20115;-76
2023/05/26 08:26:08;;;;;;;0.40;0.40;;;17.20;99.90;;;;;;4383088;32;21299;-74
2023/05/26 08:28:34;;;;;;;0.40;0.40;;;17.20;99.90;;;;;;4376928;32;21610;-74
2023/05/26 08:30:59;;;;;;;14.45;0.55;;;17.30;99.90;;;;;;4376710;32;20784;-75
2023/05/26 08:33:25;;;;;;;0.40;0.40;;;17.30;99.90;;;;;;4374133;32;20113;-75
2023/05/26 08:35:50;;;;;;;1.75;1.05;;;17.40;99.90;;;;;;4374016;32;20647;-73
2023/05/26 08:38:16;;;;;;;0.40;0.40;;;17.50;99.90;;;;;;4380053;32;20093;-74
2023/05/26 08:40:42;;;;;;;6.82;0.82;;;17.70;99.90;;;;;;4376326;32;20203;-73
2023/05/26 08:43:09;;;;;;;1.55;0.85;;;17.70;99.90;;;;;;4372159;32;20093;-74
2023/05/26 08:45:37;;;;;;;0.45;0.45;;;17.70;99.90;;;;;;4363468;32;20119;-73
2023/05/26 08:48:07;;;;;;;1.40;0.95;;;17.60;99.90;;;;;;4361863;32;20101;-75
2023/05/26 08:50:32;;;;;;;8.03;1.03;;;17.80;99.90;;;;;;4367475;32;20225;-73
2023/05/26 08:53:00;;;;;;;4.07;1.08;;;17.70;99.90;;;;;;4373333;32;20093;-73
2023/05/26 08:55:27;;;;;;;0.50;0.50;;;17.90;99.90;;;;;;4370103;32;20082;-74
2023/05/26 08:57:54;;;;;;;3.12;0.65;;;18.00;99.90;;;;;;4359523;32;20529;-72
2023/05/26 09:00:21;;;;;;;0.50;0.50;;;18.20;99.90;;;;;;4367539;32;20203;-75
2023/05/26 09:02:47;;;;;;;0.45;0.45;;;18.10;99.90;;;;;;4361084;32;20105;-74
2023/05/26 09:05:13;;;;;;;0.70;0.70;;;18.10;99.90;;;;;;4361541;32;20162;-73
2023/05/26 09:07:39;;;;;;;2.47;1.25;;;18.10;99.90;;;;;;4360836;32;20097;-72
2023/05/26 09:10:23;;;;;;;2.83;0.80;;;17.90;99.90;;;;;;4362878;32;20189;-77
2023/05/26 09:12:49;;;;;;;0.60;0.60;;;17.70;99.90;;;;;;4355280;32;20130;-74
2023/05/26 09:15:21;;;;;;;1.48;0.75;;;17.60;99.90;;;;;;4371924;32;20408;-76
2023/05/26 09:17:48;;;;;;;0.95;0.45;;;17.80;99.90;;;;;;4378627;32;20106;-76
2023/05/26 09:20:14;;;;;;;1.10;1.05;;;18.00;99.90;;;;;;4367279;32;20196;-76
2023/05/26 09:22:39;;;;;;;11.35;2.50;;;18.10;99.90;;;;;;4377391;32;20141;-72
2023/05/26 09:25:06;;;;;;;0.37;0.37;;;18.10;99.90;;;;;;4376644;32;20854;-78
2023/05/26 09:27:32;;;;;;;0.50;0.50;;;18.10;99.90;;;;;;4374198;32;20093;-73
2023/05/26 09:30:00;;;;;;;3.35;0.77;;;18.10;99.70;;;;;;4377918;32;20093;-75
2023/05/26 09:32:26;;;;;;;5.68;0.82;;;18.10;99.60;;;;;;4369213;32;20648;-76
2023/05/26 09:34:52;;;;;;;1.35;0.70;;;18.40;99.90;;;;;;4371387;32;20258;-73
2023/05/26 09:37:18;;;;;;;2.10;1.27;;;18.60;99.00;;;;;;4371147;32;20092;-77
2023/05/26 09:39:43;;;;;;;5.57;0.60;;;18.60;98.20;;;;;;4389228;32;20576;-73
2023/05/26 09:42:10;;;;;;;0.30;0.30;;;18.50;98.30;;;;;;4390000;32;20132;-76
2023/05/26 09:44:35;;;;;;;0.47;0.47;;;18.50;98.10;;;;;;4384808;32;20096;-75
2023/05/26 09:47:01;;;;;;;1.42;1.33;;;18.80;98.80;;;;;;4387089;32;20199;-76
2023/05/26 09:49:28;;;;;;;0.50;0.50;;;19.00;98.00;;;;;;4384452;32;20090;-76
2023/05/26 09:51:53;;;;;;;6.32;0.70;;;19.00;96.40;;;;;;4386509;32;20061;-74
2023/05/26 09:54:19;;;;;;;0.52;0.52;;;19.00;97.20;;;;;;4377953;32;20144;-76
2023/05/26 09:56:53;;;;;;;0.50;0.50;;;19.20;96.70;;;;;;4384089;32;20114;-75
2023/05/26 09:59:21;;;;;;;0.40;0.40;;;19.40;95.90;;;;;;4375080;32;20105;-75
2023/05/26 10:01:47;;;;;;;0.52;0.52;;;19.50;95.60;;;;;;4373738;32;20200;-76
2023/05/26 10:04:15;;;;;;;0.40;0.40;;;19.60;96.50;;;;;;4367488;32;20348;-78
2023/05/26 10:06:42;;;;;;;2.05;1.23;;;20.00;95.70;;;;;;4365290;32;21159;-75
2023/05/26 10:09:09;;;;;;;1.65;0.60;;;19.70;95.10;;;;;;4378453;32;20065;-76
2023/05/26 10:11:41;;;;;;;0.93;0.57;;;19.90;94.10;;;;;;4375345;32;20113;-76
2023/05/26 10:14:06;;;;;;;0.50;0.50;;;20.10;93.10;;;;;;4364379;32;20301;-76
2023/05/26 10:16:32;;;;;;;0.60;0.60;;;20.20;94.00;;;;;;4359554;32;20090;-76
2023/05/26 10:18:59;;;;;;;0.30;0.30;;;20.30;94.30;;;;;;4381016;32;20447;-74
2023/05/26 10:21:31;;;;;;;2.00;0.93;;;20.50;94.10;;;;;;4381180;32;20347;-75
2023/05/26 10:24:08;;;;;;;0.70;0.70;;;20.60;92.60;;;;;;4384640;32;20117;-73
2023/05/26 10:27:00;;;;;;;2.58;0.90;;;20.50;92.80;;;;;;4385332;32;20090;-71
2023/05/26 10:29:36;;;;;;;0.32;0.32;;;20.60;92.30;;;;;;4385977;32;21235;-73
2023/05/26 10:32:03;;;;;;;0.70;0.70;;;20.70;91.70;;;;;;4390467;32;20461;-74
2023/05/26 10:34:41;;;;;;;2.58;1.30;;;20.70;92.10;;;;;;4385601;32;20805;-77
2023/05/26 10:37:16;;;;;;;0.70;0.70;;;21.10;92.80;;;;;;4375309;32;20603;-75
2023/05/26 10:39:42;;;;;;;3.78;1.52;;;21.20;91.90;;;;;;4380068;32;20124;-71
2023/05/26 10:42:17;;;;;;;1.98;0.45;;;21.40;92.60;;;;;;4374185;32;20110;-73
2023/05/26 10:44:46;;;;;;;2.08;1.58;;;21.30;91.90;;;;;;4385727;32;20105;-74
2023/05/26 10:47:16;;;;;;;0.40;0.40;;;21.30;91.70;;;;;;4384547;32;20081;-75
2023/05/26 10:49:55;;;;;;;0.75;0.75;;;21.30;91.90;;;;;;4385420;32;20093;-74
2023/05/26 10:52:21;;;;;;;1.83;1.27;;;21.40;90.80;;;;;;4378816;32;20105;-77
2023/05/26 10:54:49;;;;;;;1.85;0.60;;;21.10;91.40;;;;;;4372178;32;20388;-76
2023/05/26 10:57:35;;;;;;;3.20;0.55;;;21.60;91.40;;;;;;4368005;32;21694;-76
2023/05/26 11:00:21;;;;;;;4.53;0.70;;;21.90;91.40;;;;;;4359612;32;20078;-73
2023/05/26 11:02:47;;;;;;;0.30;0.30;;;22.50;89.70;;;;;;4352052;32;20102;-77
2023/05/26 11:05:30;;;;;;;2.95;1.00;;;22.30;88.60;;;;;;4368371;32;20085;-76
2023/05/26 11:07:56;;;;;;;1.25;0.70;;;22.30;88.00;;;;;;4374078;32;20541;-74
2023/05/26 11:10:21;;;;;;;0.70;0.70;;;21.90;89.20;;;;;;4364321;32;20070;-74
2023/05/26 11:12:49;;;;;;;0.22;0.22;;;22.20;89.70;;;;;;4364458;32;20153;-76
2023/05/26 11:15:31;;;;;;;3.72;1.12;;;22.40;89.80;;;;;;4373313;32;20106;-75
2023/05/26 11:18:03;;;;;;;0.62;0.62;;;22.90;88.70;;;;;;4383455;32;20089;-75
2023/05/26 11:20:28;;;;;;;1.10;0.73;;;22.90;87.80;;;;;;4382875;32;20118;-74
2023/05/26 11:22:55;;;;;;;0.68;0.68;;;22.80;85.50;;;;;;4384776;32;20450;-76
2023/05/26 11:25:21;;;;;;;0.60;0.60;;;23.00;84.70;;;;;;4384186;32;20118;-74
2023/05/26 11:27:47;;;;;;;0.10;0.10;;;23.00;81.20;;;;;;4375892;32;20588;-75
2023/05/26 11:30:13;;;;;;;1.50;0.75;;;22.90;80.60;;;;;;4377221;32;20238;-73
2023/05/26 11:32:54;;;;;;;4.15;1.15;;;23.10;80.50;;;;;;4377969;32;20549;-74
2023/05/26 11:35:22;;;;;;;1.45;0.40;;;23.10;80.60;;;;;;4377478;32;21814;-75
2023/05/26 11:37:47;;;;;;;10.73;2.03;;;23.30;81.60;;;;;;4371221;32;20654;-74
2023/05/26 11:40:13;;;;;;;8.27;0.50;;;23.50;80.30;;;;;;4374357;32;20149;-76
2023/05/26 11:42:39;;;;;;;0.30;0.30;;;23.70;79.60;;;;;;4372486;32;20880;-73
2023/05/26 11:45:05;;;;;;;0.20;0.20;;;24.10;78.40;;;;;;4377743;32;96632;-75
2023/05/26 11:47:30;;;;;;;0.35;0.35;;;24.20;78.20;;;;;;4378296;32;20155;-76
2023/05/26 11:50:06;;;;;;;3.95;1.08;;;24.10;76.70;;;;;;4368474;32;20109;-74
2023/05/26 11:52:31;;;;;;;0.30;0.30;;;24.40;74.50;;;;;;4372031;32;20170;-76
2023/05/26 11:54:57;;;;;;;2.45;1.52;;;24.10;75.30;;;;;;4379737;32;20553;-75
2023/05/26 11:57:25;;;;;;;0.43;0.25;;;24.50;75.30;;;;;;4384347;32;21523;-76
2023/05/26 11:59:52;;;;;;;2.20;0.93;;;24.90;74.20;;;;;;4380690;32;20190;-76
2023/05/26 12:02:18;;;;;;;0.13;0.13;;;25.10;73.40;;;;;;4381532;32;20187;-75
2023/05/26 12:04:43;;;;;;;0.47;0.47;;;25.40;69.10;;;;;;4382298;32;20108;-75
2023/05/26 12:07:09;;;;;;;0.15;0.15;;;25.30;67.90;;;;;;4394348;32;21523;-76
2023/05/26 12:09:35;;;;;;;2.72;1.27;;;25.60;71.00;;;;;;4391229;32;20424;-74
2023/05/26 12:12:02;;;;;;;0.10;0.10;;;26.10;67.70;;;;;;4394529;32;20066;-74
2023/05/26 12:14:28;;;;;;;0.25;0.25;;;26.10;66.20;;;;;;4385277;32;20650;-77
2023/05/26 12:16:55;;;;;;;2.58;1.55;;;26.00;68.70;;;;;;4379374;32;20157;-75
2023/05/26 12:19:22;;;;;;;2.03;0.70;;;25.50;68.40;;;;;;4380678;32;20083;-73
2023/05/26 12:21:50;;;;;;;0.40;0.40;;;25.70;68.30;;;;;;4383663;32;20114;-74
2023/05/26 12:24:37;;;;;;;0.73;0.70;;;26.10;68.20;;;;;;4384044;32;20088;-76
2023/05/26 12:27:07;;;;;;;0.32;0.32;;;26.30;64.80;;;;;;4378310;32;20098;-77
2023/05/26 12:29:37;;;;;;;2.67;0.70;;;26.20;66.10;;;;;;4387885;32;20101;-73
2023/05/26 12:32:05;;;;;;;2.65;0.55;;;26.00;66.60;;;;;;4374233;32;21148;-75
2023/05/26 12:34:33;;;;;;;0.30;0.30;;;26.20;67.50;;;;;;4381717;32;20423;-75
2023/05/26 12:36:59;;;;;;;0.10;0.10;;;26.10;66.80;;;;;;4393057;32;20090;-75
2023/05/26 12:39:25;;;;;;;0.73;0.73;;;26.00;66.40;;;;;;4393408;32;20090;-71
2023/05/26 12:41:50;;;;;;;2.62;0.98;;;25.80;67.30;;;;;;4400911;32;20152;-72
2023/05/26 12:44:16;;;;;;;0.17;0.17;;;25.90;65.10;;;;;;4394378;32;20093;-73